sensor_id;sensor_type;location;lat;lon;timestamp;P1;durP1;ratioP1;P2;durP2;ratioP2
55350;SDS011;62194;49.480;10.986;2023-08-24T00:00:02;8.90;;;8.00;;
55350;SDS011;62194;49.480;10.986;2023-08-24T00:00:08;9.02;;;7.90;;
55350;SDS011;62194;49.480;10.986;2023-08-24T00:00:13;10.07;;;7.93;;
55350;SDS011;62194;49.480;10.986;2023-08-24T00:00:19;10.40;;;7.80;;
55350;SDS011;62194;49.480;10.986;2023-08-24T00:00:24;9.93;;;7.80;;
55350;SDS011;62194;49.480;10.986;2023-08-24T00:00:30;10.48;;;7.78;;
55350;SDS011;62194;49.480;10.986;2023-08-24T00:00:37;10.90;;;7.80;;
55350;SDS011;62194;49.480;10.986;2023-08-24T00:00:42;9.77;;;7.67;;
55350;SDS011;62194;49.480;10.986;2023-08-24T00:00:48;9.98;;;7.72;;
55350;SDS011;62194;49.480;10.986;2023-08-24T00:00:53;10.50;;;7.70;;
55350;SDS011;62194;49.480;10.986;2023-08-24T00:00:58;10.77;;;7.70;;
55350;SDS011;62194;49.480;10.986;2023-08-24T00:01:03;9.47;;;7.50;;
55350;SDS011;62194;49.480;10.986;2023-08-24T00:01:08;9.17;;;7.47;;
55350;SDS011;62194;49.480;10.986;2023-08-24T00:01:14;9.20;;;7.72;;
55350;SDS011;62194;49.480;10.986;2023-08-24T00:01:22;8.56;;;7.74;;
55350;SDS011;62194;49.480;10.986;2023-08-24T00:01:27;8.40;;;7.65;;
55350;SDS011;62194;49.480;10.986;2023-08-24T00:01:32;9.47;;;7.67;;
55350;SDS011;62194;49.480;10.986;2023-08-24T00:01:37;9.57;;;7.80;;
55350;SDS011;62194;49.480;10.986;2023-08-24T00:01:43;9.60;;;7.63;;
55350;SDS011;62194;49.480;10.986;2023-08-24T00:01:48;9.60;;;7.40;;
55350;SDS011;62194;49.480;10.986;2023-08-24T00:01:53;9.43;;;7.33;;
55350;SDS011;62194;49.480;10.986;2023-08-24T00:01:58;9.13;;;7.43;;
55350;SDS011;62194;49.480;10.986;2023-08-24T00:02:03;8.35;;;7.55;;
55350;SDS011;62194;49.480;10.986;2023-08-24T00:02:08;8.47;;;7.60;;
55350;SDS011;62194;49.480;10.986;2023-08-24T00:02:15;9.07;;;7.72;;
55350;SDS011;62194;49.480;10.986;2023-08-24T00:02:21;9.13;;;7.78;;
55350;SDS011;62194;49.480;10.986;2023-08-24T00:02:27;9.87;;;7.67;;
55350;SDS011;62194;49.480;10.986;2023-08-24T00:02:32;9.40;;;7.37;;
55350;SDS011;62194;49.480;10.986;2023-08-24T00:02:37;9.43;;;7.30;;
55350;SDS011;62194;49.480;10.986;2023-08-24T00:02:42;9.27;;;7.17;;
55350;SDS011;62194;49.480;10.986;2023-08-24T00:02:47;8.70;;;6.93;;
55350;SDS011;62194;49.480;10.986;2023-08-24T00:02:52;8.45;;;6.85;;
55350;SDS011;62194;49.480;10.986;2023-08-24T00:02:57;7.57;;;6.77;;
55350;SDS011;62194;49.480;10.986;2023-08-24T00:03:03;7.87;;;6.93;;
55350;SDS011;62194;49.480;10.986;2023-08-24T00:03:08;7.85;;;7.05;;
55350;SDS011;62194;49.480;10.986;2023-08-24T00:03:13;7.87;;;7.10;;
55350;SDS011;62194;49.480;10.986;2023-08-24T00:03:19;8.00;;;7.20;;
55350;SDS011;62194;49.480;10.986;2023-08-24T00:03:26;8.72;;;7.32;;
55350;SDS011;62194;49.480;10.986;2023-08-24T00:03:31;8.97;;;7.33;;
55350;SDS011;62194;49.480;10.986;2023-08-24T00:03:37;9.24;;;7.22;;
55350;SDS011;62194;49.480;10.986;2023-08-24T00:03:45;9.63;;;7.23;;
55350;SDS011;62194;49.480;10.986;2023-08-24T00:03:51;9.82;;;7.30;;
55350;SDS011;62194;49.480;10.986;2023-08-24T00:03:57;9.33;;;7.13;;
55350;SDS011;62194;49.480;10.986;2023-08-24T00:04:03;9.13;;;7.13;;
55350;SDS011;62194;49.480;10.986;2023-08-24T00:04:08;8.93;;;7.03;;
55350;SDS011;62194;49.480;10.986;2023-08-24T00:04:14;8.93;;;7.05;;
55350;SDS011;62194;49.480;10.986;2023-08-24T00:04:19;8.00;;;7.00;;
55350;SDS011;62194;49.480;10.986;2023-08-24T00:04:24;7.80;;;7.00;;
55350;SDS011;62194;49.480;10.986;2023-08-24T00:04:29;7.90;;;7.05;;
55350;SDS011;62194;49.480;10.986;2023-08-24T00:04:34;8.00;;;7.07;;
55350;SDS011;62194;49.480;10.986;2023-08-24T00:04:39;8.70;;;7.10;;
55350;SDS011;62194;49.480;10.986;2023-08-24T00:04:45;8.53;;;7.03;;
55350;SDS011;62194;49.480;10.986;2023-08-24T00:04:50;10.63;;;7.17;;
55350;SDS011;62194;49.480;10.986;2023-08-24T00:04:55;11.40;;;7.37;;
55350;SDS011;62194;49.480;10.986;2023-08-24T00:05:01;11.72;;;7.40;;
55350;SDS011;62194;49.480;10.986;2023-08-24T00:05:07;12.03;;;7.60;;
55350;SDS011;62194;49.480;10.986;2023-08-24T00:05:12;11.98;;;7.63;;
55350;SDS011;62194;49.480;10.986;2023-08-24T00:05:18;11.47;;;7.60;;
55350;SDS011;62194;49.480;10.986;2023-08-24T00:05:23;9.13;;;7.43;;
55350;SDS011;62194;49.480;10.986;2023-08-24T00:05:28;9.43;;;7.40;;
55350;SDS011;62194;49.480;10.986;2023-08-24T00:05:36;9.40;;;7.30;;
55350;SDS011;62194;49.480;10.986;2023-08-24T00:05:42;8.70;;;7.03;;
55350;SDS011;62194;49.480;10.986;2023-08-24T00:05:47;8.85;;;6.93;;
55350;SDS011;62194;49.480;10.986;2023-08-24T00:05:53;8.77;;;6.90;;
55350;SDS011;62194;49.480;10.986;2023-08-24T00:05:58;8.23;;;6.97;;
55350;SDS011;62194;49.480;10.986;2023-08-24T00:06:03;8.05;;;7.25;;
55350;SDS011;62194;49.480;10.986;2023-08-24T00:06:09;8.00;;;7.20;;
55350;SDS011;62194;49.480;10.986;2023-08-24T00:06:15;8.00;;;7.22;;
55350;SDS011;62194;49.480;10.986;2023-08-24T00:06:21;8.30;;;7.47;;
55350;SDS011;62194;49.480;10.986;2023-08-24T00:06:26;8.40;;;7.50;;
55350;SDS011;62194;49.480;10.986;2023-08-24T00:06:32;8.07;;;7.28;;
55350;SDS011;62194;49.480;10.986;2023-08-24T00:06:37;8.20;;;7.37;;
55350;SDS011;62194;49.480;10.986;2023-08-24T00:06:43;8.13;;;7.30;;
55350;SDS011;62194;49.480;10.986;2023-08-24T00:06:48;7.80;;;7.00;;
55350;SDS011;62194;49.480;10.986;2023-08-24T00:06:53;7.67;;;6.90;;
55350;SDS011;62194;49.480;10.986;2023-08-24T00:06:58;7.67;;;6.87;;
55350;SDS011;62194;49.480;10.986;2023-08-24T00:07:04;7.73;;;6.93;;
55350;SDS011;62194;49.480;10.986;2023-08-24T00:07:09;7.87;;;7.00;;
55350;SDS011;62194;49.480;10.986;2023-08-24T00:07:14;8.80;;;7.28;;
55350;SDS011;62194;49.480;10.986;2023-08-24T00:07:19;9.67;;;7.53;;
55350;SDS011;62194;49.480;10.986;2023-08-24T00:07:24;9.83;;;7.47;;
55350;SDS011;62194;49.480;10.986;2023-08-24T00:07:29;10.00;;;7.60;;
55350;SDS011;62194;49.480;10.986;2023-08-24T00:07:35;9.90;;;7.60;;
55350;SDS011;62194;49.480;10.986;2023-08-24T00:07:40;9.13;;;7.47;;
55350;SDS011;62194;49.480;10.986;2023-08-24T00:07:45;8.63;;;7.47;;
55350;SDS011;62194;49.480;10.986;2023-08-24T00:07:53;8.17;;;7.37;;
55350;SDS011;62194;49.480;10.986;2023-08-24T00:07:58;8.33;;;7.50;;
55350;SDS011;62194;49.480;10.986;2023-08-24T00:08:04;8.43;;;7.60;;
55350;SDS011;62194;49.480;10.986;2023-08-24T00:08:09;8.75;;;7.85;;
55350;SDS011;62194;49.480;10.986;2023-08-24T00:08:14;8.87;;;7.93;;
55350;SDS011;62194;49.480;10.986;2023-08-24T00:08:19;9.00;;;8.10;;
55350;SDS011;62194;49.480;10.986;2023-08-24T00:08:24;9.17;;;8.07;;
55350;SDS011;62194;49.480;10.986;2023-08-24T00:08:30;9.93;;;8.00;;
55350;SDS011;62194;49.480;10.986;2023-08-24T00:08:35;9.63;;;7.85;;
55350;SDS011;62194;49.480;10.986;2023-08-24T00:08:40;9.07;;;7.60;;
55350;SDS011;62194;49.480;10.986;2023-08-24T00:08:45;8.70;;;7.53;;
55350;SDS011;62194;49.480;10.986;2023-08-24T00:08:50;9.90;;;7.53;;
55350;SDS011;62194;49.480;10.986;2023-08-24T00:08:55;10.63;;;7.57;;
55350;SDS011;62194;49.480;10.986;2023-08-24T00:09:01;9.50;;;7.38;;
55350;SDS011;62194;49.480;10.986;2023-08-24T00:09:06;9.73;;;7.50;;
55350;SDS011;62194;49.480;10.986;2023-08-24T00:09:11;10.33;;;7.63;;
55350;SDS011;62194;49.480;10.986;2023-08-24T00:09:17;10.43;;;7.53;;
55350;SDS011;62194;49.480;10.986;2023-08-24T00:09:22;8.60;;;7.43;;
55350;SDS011;62194;49.480;10.986;2023-08-24T00:09:27;8.30;;;7.40;;
55350;SDS011;62194;49.480;10.986;2023-08-24T00:09:32;8.50;;;7.37;;
55350;SDS011;62194;49.480;10.986;2023-08-24T00:09:37;8.83;;;7.27;;
55350;SDS011;62194;49.480;10.986;2023-08-24T00:09:42;8.57;;;7.07;;
55350;SDS011;62194;49.480;10.986;2023-08-24T00:09:48;8.40;;;6.90;;
55350;SDS011;62194;49.480;10.986;2023-08-24T00:09:53;8.20;;;6.93;;
55350;SDS011;62194;49.480;10.986;2023-08-24T00:09:58;7.93;;;6.90;;
55350;SDS011;62194;49.480;10.986;2023-08-24T00:10:03;7.83;;;6.90;;
55350;SDS011;62194;49.480;10.986;2023-08-24T00:10:09;7.50;;;6.78;;
55350;SDS011;62194;49.480;10.986;2023-08-24T00:10:14;7.53;;;6.80;;
55350;SDS011;62194;49.480;10.986;2023-08-24T00:10:19;7.67;;;6.80;;
55350;SDS011;62194;49.480;10.986;2023-08-24T00:10:25;7.70;;;6.50;;
55350;SDS011;62194;49.480;10.986;2023-08-24T00:10:30;7.78;;;6.45;;
55350;SDS011;62194;49.480;10.986;2023-08-24T00:10:36;7.43;;;6.30;;
55350;SDS011;62194;49.480;10.986;2023-08-24T00:10:42;7.25;;;6.43;;
55350;SDS011;62194;49.480;10.986;2023-08-24T00:10:48;7.50;;;6.67;;
55350;SDS011;62194;49.480;10.986;2023-08-24T00:10:54;7.63;;;6.93;;
55350;SDS011;62194;49.480;10.986;2023-08-24T00:10:59;7.87;;;7.10;;
55350;SDS011;62194;49.480;10.986;2023-08-24T00:11:05;8.27;;;7.47;;
55350;SDS011;62194;49.480;10.986;2023-08-24T00:11:10;8.43;;;7.60;;
55350;SDS011;62194;49.480;10.986;2023-08-24T00:11:19;8.49;;;7.64;;
55350;SDS011;62194;49.480;10.986;2023-08-24T00:11:25;8.75;;;7.85;;
55350;SDS011;62194;49.480;10.986;2023-08-24T00:11:30;8.90;;;8.00;;
55350;SDS011;62194;49.480;10.986;2023-08-24T00:11:35;8.77;;;7.87;;
55350;SDS011;62194;49.480;10.986;2023-08-24T00:11:40;8.77;;;7.88;;
55350;SDS011;62194;49.480;10.986;2023-08-24T00:11:46;8.57;;;7.67;;
55350;SDS011;62194;49.480;10.986;2023-08-24T00:11:51;8.43;;;7.53;;
55350;SDS011;62194;49.480;10.986;2023-08-24T00:11:56;8.13;;;7.30;;
55350;SDS011;62194;49.480;10.986;2023-08-24T00:12:02;8.07;;;7.05;;
55350;SDS011;62194;49.480;10.986;2023-08-24T00:12:07;8.67;;;7.03;;
55350;SDS011;62194;49.480;10.986;2023-08-24T00:12:12;8.57;;;7.00;;
55350;SDS011;62194;49.480;10.986;2023-08-24T00:12:17;8.87;;;7.07;;
55350;SDS011;62194;49.480;10.986;2023-08-24T00:12:22;8.83;;;7.03;;
55350;SDS011;62194;49.480;10.986;2023-08-24T00:12:27;9.35;;;6.97;;
55350;SDS011;62194;49.480;10.986;2023-08-24T00:12:33;9.27;;;7.03;;
55350;SDS011;62194;49.480;10.986;2023-08-24T00:12:38;8.87;;;7.03;;
55350;SDS011;62194;49.480;10.986;2023-08-24T00:12:44;9.07;;;7.05;;
55350;SDS011;62194;49.480;10.986;2023-08-24T00:12:49;9.38;;;6.97;;
55350;SDS011;62194;49.480;10.986;2023-08-24T00:12:55;9.37;;;7.23;;
55350;SDS011;62194;49.480;10.986;2023-08-24T00:13:00;8.90;;;7.37;;
55350;SDS011;62194;49.480;10.986;2023-08-24T00:13:05;8.80;;;7.20;;
55350;SDS011;62194;49.480;10.986;2023-08-24T00:13:10;8.53;;;7.13;;
55350;SDS011;62194;49.480;10.986;2023-08-24T00:13:15;7.80;;;6.97;;
55350;SDS011;62194;49.480;10.986;2023-08-24T00:13:21;7.57;;;6.87;;
55350;SDS011;62194;49.480;10.986;2023-08-24T00:13:26;7.20;;;6.50;;
55350;SDS011;62194;49.480;10.986;2023-08-24T00:13:31;7.07;;;6.37;;
55350;SDS011;62194;49.480;10.986;2023-08-24T00:13:37;6.88;;;6.22;;
55350;SDS011;62194;49.480;10.986;2023-08-24T00:13:42;7.00;;;6.30;;
55350;SDS011;62194;49.480;10.986;2023-08-24T00:14:05;8.18;;;6.68;;
55350;SDS011;62194;49.480;10.986;2023-08-24T00:14:11;9.43;;;7.13;;
55350;SDS011;62194;49.480;10.986;2023-08-24T00:14:16;9.05;;;7.13;;
55350;SDS011;62194;49.480;10.986;2023-08-24T00:14:22;9.43;;;7.20;;
55350;SDS011;62194;49.480;10.986;2023-08-24T00:14:27;9.90;;;7.50;;
55350;SDS011;62194;49.480;10.986;2023-08-24T00:14:32;9.70;;;7.50;;
55350;SDS011;62194;49.480;10.986;2023-08-24T00:14:37;9.73;;;7.53;;
55350;SDS011;62194;49.480;10.986;2023-08-24T00:14:43;10.00;;;7.63;;
55350;SDS011;62194;49.480;10.986;2023-08-24T00:14:48;10.17;;;7.80;;
55350;SDS011;62194;49.480;10.986;2023-08-24T00:14:53;9.53;;;7.80;;
55350;SDS011;62194;49.480;10.986;2023-08-24T00:14:58;9.00;;;7.60;;
55350;SDS011;62194;49.480;10.986;2023-08-24T00:15:03;9.10;;;7.53;;
55350;SDS011;62194;49.480;10.986;2023-08-24T00:15:09;9.30;;;7.43;;
55350;SDS011;62194;49.480;10.986;2023-08-24T00:15:15;9.30;;;7.55;;
55350;SDS011;62194;49.480;10.986;2023-08-24T00:15:20;9.27;;;7.50;;
55350;SDS011;62194;49.480;10.986;2023-08-24T00:15:25;9.37;;;7.67;;
55350;SDS011;62194;49.480;10.986;2023-08-24T00:15:31;10.20;;;7.77;;
55350;SDS011;62194;49.480;10.986;2023-08-24T00:15:36;9.73;;;7.75;;
55350;SDS011;62194;49.480;10.986;2023-08-24T00:15:41;9.47;;;7.77;;
55350;SDS011;62194;49.480;10.986;2023-08-24T00:15:47;9.33;;;7.93;;
55350;SDS011;62194;49.480;10.986;2023-08-24T00:15:53;9.47;;;8.00;;
55350;SDS011;62194;49.480;10.986;2023-08-24T00:15:58;8.67;;;7.77;;
55350;SDS011;62194;49.480;10.986;2023-08-24T00:16:03;8.67;;;7.77;;
55350;SDS011;62194;49.480;10.986;2023-08-24T00:16:09;9.00;;;7.87;;
55350;SDS011;62194;49.480;10.986;2023-08-24T00:16:15;8.82;;;7.55;;
55350;SDS011;62194;49.480;10.986;2023-08-24T00:16:20;9.50;;;7.47;;
55350;SDS011;62194;49.480;10.986;2023-08-24T00:16:25;10.33;;;7.57;;
55350;SDS011;62194;49.480;10.986;2023-08-24T00:16:31;10.37;;;7.63;;
55350;SDS011;62194;49.480;10.986;2023-08-24T00:16:36;10.13;;;7.60;;
55350;SDS011;62194;49.480;10.986;2023-08-24T00:16:42;10.93;;;7.60;;
55350;SDS011;62194;49.480;10.986;2023-08-24T00:16:47;10.60;;;7.50;;
55350;SDS011;62194;49.480;10.986;2023-08-24T00:16:52;10.13;;;7.45;;
55350;SDS011;62194;49.480;10.986;2023-08-24T00:16:57;9.87;;;7.60;;
55350;SDS011;62194;49.480;10.986;2023-08-24T00:17:02;9.83;;;7.47;;
55350;SDS011;62194;49.480;10.986;2023-08-24T00:17:07;9.93;;;7.33;;
55350;SDS011;62194;49.480;10.986;2023-08-24T00:17:13;10.20;;;7.30;;
55350;SDS011;62194;49.480;10.986;2023-08-24T00:17:18;10.73;;;7.40;;
55350;SDS011;62194;49.480;10.986;2023-08-24T00:17:24;9.77;;;7.35;;
55350;SDS011;62194;49.480;10.986;2023-08-24T00:17:29;9.50;;;7.43;;
55350;SDS011;62194;49.480;10.986;2023-08-24T00:17:34;9.70;;;7.53;;
55350;SDS011;62194;49.480;10.986;2023-08-24T00:17:40;8.93;;;7.60;;
55350;SDS011;62194;49.480;10.986;2023-08-24T00:17:45;8.50;;;7.70;;
55350;SDS011;62194;49.480;10.986;2023-08-24T00:17:50;8.57;;;7.75;;
55350;SDS011;62194;49.480;10.986;2023-08-24T00:17:55;8.77;;;7.87;;
55350;SDS011;62194;49.480;10.986;2023-08-24T00:18:01;8.97;;;8.03;;
55350;SDS011;62194;49.480;10.986;2023-08-24T00:18:06;8.80;;;8.00;;
55350;SDS011;62194;49.480;10.986;2023-08-24T00:18:11;8.83;;;8.03;;
55350;SDS011;62194;49.480;10.986;2023-08-24T00:18:17;9.07;;;8.17;;
55350;SDS011;62194;49.480;10.986;2023-08-24T00:18:24;9.10;;;8.10;;
55350;SDS011;62194;49.480;10.986;2023-08-24T00:18:29;9.07;;;8.13;;
55350;SDS011;62194;49.480;10.986;2023-08-24T00:18:34;9.50;;;8.27;;
55350;SDS011;62194;49.480;10.986;2023-08-24T00:18:39;11.67;;;8.50;;
55350;SDS011;62194;49.480;10.986;2023-08-24T00:18:45;11.93;;;8.50;;
55350;SDS011;62194;49.480;10.986;2023-08-24T00:18:50;11.35;;;8.50;;
55350;SDS011;62194;49.480;10.986;2023-08-24T00:18:55;11.00;;;8.50;;
55350;SDS011;62194;49.480;10.986;2023-08-24T00:19:00;10.73;;;8.30;;
55350;SDS011;62194;49.480;10.986;2023-08-24T00:19:06;9.88;;;7.82;;
55350;SDS011;62194;49.480;10.986;2023-08-24T00:19:11;8.73;;;7.80;;
55350;SDS011;62194;49.480;10.986;2023-08-24T00:19:17;8.60;;;7.70;;
55350;SDS011;62194;49.480;10.986;2023-08-24T00:19:22;8.25;;;7.45;;
55350;SDS011;62194;49.480;10.986;2023-08-24T00:19:27;8.20;;;7.40;;
55350;SDS011;62194;49.480;10.986;2023-08-24T00:19:32;8.30;;;7.50;;
55350;SDS011;62194;49.480;10.986;2023-08-24T00:19:37;8.53;;;7.70;;
55350;SDS011;62194;49.480;10.986;2023-08-24T00:19:42;9.37;;;7.67;;
55350;SDS011;62194;49.480;10.986;2023-08-24T00:19:47;9.53;;;7.60;;
55350;SDS011;62194;49.480;10.986;2023-08-24T00:19:53;9.90;;;7.68;;
55350;SDS011;62194;49.480;10.986;2023-08-24T00:19:58;10.23;;;7.70;;
55350;SDS011;62194;49.480;10.986;2023-08-24T00:20:04;12.30;;;7.87;;
55350;SDS011;62194;49.480;10.986;2023-08-24T00:20:09;12.35;;;8.13;;
55350;SDS011;62194;49.480;10.986;2023-08-24T00:20:15;11.35;;;8.07;;
55350;SDS011;62194;49.480;10.986;2023-08-24T00:20:20;12.63;;;8.20;;
55350;SDS011;62194;49.480;10.986;2023-08-24T00:20:25;14.67;;;8.43;;
55350;SDS011;62194;49.480;10.986;2023-08-24T00:20:32;14.14;;;8.34;;
55350;SDS011;62194;49.480;10.986;2023-08-24T00:20:37;12.20;;;7.93;;
55350;SDS011;62194;49.480;10.986;2023-08-24T00:20:42;12.53;;;8.03;;
55350;SDS011;62194;49.480;10.986;2023-08-24T00:20:48;11.93;;;7.87;;
55350;SDS011;62194;49.480;10.986;2023-08-24T00:20:53;10.77;;;7.85;;
55350;SDS011;62194;49.480;10.986;2023-08-24T00:20:58;8.50;;;7.60;;
55350;SDS011;62194;49.480;10.986;2023-08-24T00:21:03;8.43;;;7.60;;
55350;SDS011;62194;49.480;10.986;2023-08-24T00:21:09;8.55;;;7.65;;
55350;SDS011;62194;49.480;10.986;2023-08-24T00:21:14;9.30;;;7.83;;
55350;SDS011;62194;49.480;10.986;2023-08-24T00:21:24;11.13;;;7.85;;
55350;SDS011;62194;49.480;10.986;2023-08-24T00:21:29;12.40;;;8.03;;
55350;SDS011;62194;49.480;10.986;2023-08-24T00:21:34;12.37;;;8.07;;
55350;SDS011;62194;49.480;10.986;2023-08-24T00:21:39;12.13;;;7.82;;
55350;SDS011;62194;49.480;10.986;2023-08-24T00:21:45;10.57;;;7.57;;
55350;SDS011;62194;49.480;10.986;2023-08-24T00:21:50;9.30;;;7.50;;
55350;SDS011;62194;49.480;10.986;2023-08-24T00:21:55;8.27;;;7.40;;
55350;SDS011;62194;49.480;10.986;2023-08-24T00:22:01;8.67;;;7.20;;
55350;SDS011;62194;49.480;10.986;2023-08-24T00:22:06;9.13;;;7.28;;
55350;SDS011;62194;49.480;10.986;2023-08-24T00:22:11;9.27;;;7.23;;
55350;SDS011;62194;49.480;10.986;2023-08-24T00:22:16;9.27;;;7.40;;
55350;SDS011;62194;49.480;10.986;2023-08-24T00:22:23;9.57;;;7.43;;
55350;SDS011;62194;49.480;10.986;2023-08-24T00:22:28;9.66;;;7.46;;
55350;SDS011;62194;49.480;10.986;2023-08-24T00:22:33;8.87;;;7.43;;
55350;SDS011;62194;49.480;10.986;2023-08-24T00:22:38;8.50;;;7.53;;
55350;SDS011;62194;49.480;10.986;2023-08-24T00:22:44;8.88;;;7.70;;
55350;SDS011;62194;49.480;10.986;2023-08-24T00:22:49;10.00;;;7.87;;
55350;SDS011;62194;49.480;10.986;2023-08-24T00:22:54;9.87;;;7.90;;
55350;SDS011;62194;49.480;10.986;2023-08-24T00:22:59;10.30;;;8.00;;
55350;SDS011;62194;49.480;10.986;2023-08-24T00:23:04;10.77;;;8.02;;
55350;SDS011;62194;49.480;10.986;2023-08-24T00:23:10;10.00;;;7.80;;
55350;SDS011;62194;49.480;10.986;2023-08-24T00:23:15;9.60;;;7.77;;
55350;SDS011;62194;49.480;10.986;2023-08-24T00:23:20;8.98;;;7.53;;
55350;SDS011;62194;49.480;10.986;2023-08-24T00:23:26;8.90;;;7.50;;
55350;SDS011;62194;49.480;10.986;2023-08-24T00:23:31;8.63;;;7.50;;
55350;SDS011;62194;49.480;10.986;2023-08-24T00:23:36;10.43;;;7.63;;
55350;SDS011;62194;49.480;10.986;2023-08-24T00:23:41;11.17;;;7.77;;
55350;SDS011;62194;49.480;10.986;2023-08-24T00:23:46;11.20;;;7.70;;
55350;SDS011;62194;49.480;10.986;2023-08-24T00:23:51;10.70;;;7.80;;
55350;SDS011;62194;49.480;10.986;2023-08-24T00:23:57;10.40;;;7.70;;
55350;SDS011;62194;49.480;10.986;2023-08-24T00:24:04;9.57;;;7.60;;
55350;SDS011;62194;49.480;10.986;2023-08-24T00:24:09;8.30;;;7.50;;
55350;SDS011;62194;49.480;10.986;2023-08-24T00:24:15;8.23;;;7.43;;
55350;SDS011;62194;49.480;10.986;2023-08-24T00:24:20;8.47;;;7.37;;
55350;SDS011;62194;49.480;10.986;2023-08-24T00:24:25;9.00;;;7.50;;
55350;SDS011;62194;49.480;10.986;2023-08-24T00:24:30;9.63;;;7.43;;
55350;SDS011;62194;49.480;10.986;2023-08-24T00:24:35;9.80;;;7.38;;
55350;SDS011;62194;49.480;10.986;2023-08-24T00:24:40;10.70;;;7.43;;
55350;SDS011;62194;49.480;10.986;2023-08-24T00:24:45;10.47;;;7.53;;
55350;SDS011;62194;49.480;10.986;2023-08-24T00:24:51;9.67;;;7.47;;
55350;SDS011;62194;49.480;10.986;2023-08-24T00:24:56;9.23;;;7.30;;
55350;SDS011;62194;49.480;10.986;2023-08-24T00:25:01;8.47;;;7.43;;
55350;SDS011;62194;49.480;10.986;2023-08-24T00:25:06;8.43;;;7.43;;
55350;SDS011;62194;49.480;10.986;2023-08-24T00:25:12;8.10;;;7.30;;
55350;SDS011;62194;49.480;10.986;2023-08-24T00:25:17;8.20;;;7.40;;
55350;SDS011;62194;49.480;10.986;2023-08-24T00:25:23;8.23;;;7.43;;
55350;SDS011;62194;49.480;10.986;2023-08-24T00:25:29;8.43;;;7.63;;
55350;SDS011;62194;49.480;10.986;2023-08-24T00:25:34;8.68;;;7.78;;
55350;SDS011;62194;49.480;10.986;2023-08-24T00:25:39;8.67;;;7.80;;
55350;SDS011;62194;49.480;10.986;2023-08-24T00:25:45;8.70;;;7.80;;
55350;SDS011;62194;49.480;10.986;2023-08-24T00:25:51;8.80;;;7.90;;
55350;SDS011;62194;49.480;10.986;2023-08-24T00:25:56;8.97;;;8.00;;
55350;SDS011;62194;49.480;10.986;2023-08-24T00:26:01;8.87;;;7.97;;
55350;SDS011;62194;49.480;10.986;2023-08-24T00:26:06;8.90;;;8.00;;
55350;SDS011;62194;49.480;10.986;2023-08-24T00:26:11;9.07;;;8.00;;
55350;SDS011;62194;49.480;10.986;2023-08-24T00:26:17;9.97;;;7.90;;
55350;SDS011;62194;49.480;10.986;2023-08-24T00:26:22;10.38;;;7.90;;
55350;SDS011;62194;49.480;10.986;2023-08-24T00:26:28;10.27;;;7.88;;
55350;SDS011;62194;49.480;10.986;2023-08-24T00:26:33;10.20;;;7.90;;
55350;SDS011;62194;49.480;10.986;2023-08-24T00:26:38;10.23;;;7.93;;
55350;SDS011;62194;49.480;10.986;2023-08-24T00:26:43;10.43;;;8.17;;
55350;SDS011;62194;49.480;10.986;2023-08-24T00:26:49;9.47;;;8.43;;
55350;SDS011;62194;49.480;10.986;2023-08-24T00:26:54;9.23;;;8.32;;
55350;SDS011;62194;49.480;10.986;2023-08-24T00:27:00;9.57;;;8.57;;
55350;SDS011;62194;49.480;10.986;2023-08-24T00:27:05;9.50;;;8.50;;
55350;SDS011;62194;49.480;10.986;2023-08-24T00:27:10;9.35;;;8.35;;
55350;SDS011;62194;49.480;10.986;2023-08-24T00:27:15;9.13;;;8.20;;
55350;SDS011;62194;49.480;10.986;2023-08-24T00:27:20;9.57;;;8.10;;
55350;SDS011;62194;49.480;10.986;2023-08-24T00:27:25;9.40;;;7.90;;
55350;SDS011;62194;49.480;10.986;2023-08-24T00:27:30;9.07;;;7.70;;
55350;SDS011;62194;49.480;10.986;2023-08-24T00:27:36;8.77;;;7.77;;
55350;SDS011;62194;49.480;10.986;2023-08-24T00:27:41;8.95;;;7.85;;
55350;SDS011;62194;49.480;10.986;2023-08-24T00:27:46;9.03;;;8.03;;
55350;SDS011;62194;49.480;10.986;2023-08-24T00:27:52;9.23;;;8.23;;
55350;SDS011;62194;49.480;10.986;2023-08-24T00:27:58;9.52;;;8.32;;
55350;SDS011;62194;49.480;10.986;2023-08-24T00:28:03;10.50;;;8.30;;
55350;SDS011;62194;49.480;10.986;2023-08-24T00:28:09;10.75;;;8.05;;
55350;SDS011;62194;49.480;10.986;2023-08-24T00:28:14;10.00;;;7.53;;
55350;SDS011;62194;49.480;10.986;2023-08-24T00:28:19;9.80;;;7.27;;
55350;SDS011;62194;49.480;10.986;2023-08-24T00:28:25;8.67;;;7.07;;
55350;SDS011;62194;49.480;10.986;2023-08-24T00:28:31;8.20;;;6.82;;
55350;SDS011;62194;49.480;10.986;2023-08-24T00:28:36;7.60;;;6.87;;
55350;SDS011;62194;49.480;10.986;2023-08-24T00:28:41;7.65;;;6.90;;
55350;SDS011;62194;49.480;10.986;2023-08-24T00:28:46;7.83;;;7.03;;
55350;SDS011;62194;49.480;10.986;2023-08-24T00:28:51;7.93;;;7.00;;
55350;SDS011;62194;49.480;10.986;2023-08-24T00:28:56;8.70;;;7.17;;
55350;SDS011;62194;49.480;10.986;2023-08-24T00:29:02;8.77;;;7.20;;
55350;SDS011;62194;49.480;10.986;2023-08-24T00:29:07;8.57;;;7.27;;
55350;SDS011;62194;49.480;10.986;2023-08-24T00:29:12;8.55;;;7.25;;
55350;SDS011;62194;49.480;10.986;2023-08-24T00:29:17;8.83;;;7.37;;
55350;SDS011;62194;49.480;10.986;2023-08-24T00:29:22;8.47;;;7.43;;
55350;SDS011;62194;49.480;10.986;2023-08-24T00:29:27;8.23;;;7.43;;
55350;SDS011;62194;49.480;10.986;2023-08-24T00:29:32;8.27;;;7.47;;
55350;SDS011;62194;49.480;10.986;2023-08-24T00:29:38;8.10;;;7.30;;
55350;SDS011;62194;49.480;10.986;2023-08-24T00:29:43;8.18;;;7.38;;
55350;SDS011;62194;49.480;10.986;2023-08-24T00:29:48;8.00;;;7.30;;
55350;SDS011;62194;49.480;10.986;2023-08-24T00:29:53;8.03;;;7.33;;
55350;SDS011;62194;49.480;10.986;2023-08-24T00:29:58;8.10;;;7.40;;
55350;SDS011;62194;49.480;10.986;2023-08-24T00:30:04;8.47;;;7.70;;
55350;SDS011;62194;49.480;10.986;2023-08-24T00:30:11;8.72;;;7.88;;
55350;SDS011;62194;49.480;10.986;2023-08-24T00:30:16;8.70;;;7.80;;
55350;SDS011;62194;49.480;10.986;2023-08-24T00:30:22;8.80;;;7.82;;
55350;SDS011;62194;49.480;10.986;2023-08-24T00:30:28;9.03;;;7.80;;
55350;SDS011;62194;49.480;10.986;2023-08-24T00:30:33;8.83;;;7.70;;
55350;SDS011;62194;49.480;10.986;2023-08-24T00:30:38;8.57;;;7.67;;
55350;SDS011;62194;49.480;10.986;2023-08-24T00:30:43;9.17;;;7.87;;
55350;SDS011;62194;49.480;10.986;2023-08-24T00:30:48;9.53;;;8.00;;
55350;SDS011;62194;49.480;10.986;2023-08-24T00:30:54;9.52;;;8.23;;
55350;SDS011;62194;49.480;10.986;2023-08-24T00:30:59;9.77;;;8.40;;
55350;SDS011;62194;49.480;10.986;2023-08-24T00:31:04;9.80;;;8.50;;
55350;SDS011;62194;49.480;10.986;2023-08-24T00:31:09;10.23;;;8.77;;
55350;SDS011;62194;49.480;10.986;2023-08-24T00:31:15;10.00;;;9.00;;
55350;SDS011;62194;49.480;10.986;2023-08-24T00:31:21;9.82;;;8.76;;
55350;SDS011;62194;49.480;10.986;2023-08-24T00:31:26;9.57;;;8.47;;
55350;SDS011;62194;49.480;10.986;2023-08-24T00:31:31;9.30;;;8.30;;
55350;SDS011;62194;49.480;10.986;2023-08-24T00:31:37;9.35;;;8.05;;
55350;SDS011;62194;49.480;10.986;2023-08-24T00:31:42;9.37;;;7.93;;
55350;SDS011;62194;49.480;10.986;2023-08-24T00:31:48;10.32;;;7.85;;
55350;SDS011;62194;49.480;10.986;2023-08-24T00:31:53;9.97;;;8.03;;
55350;SDS011;62194;49.480;10.986;2023-08-24T00:31:58;10.77;;;8.13;;
55350;SDS011;62194;49.480;10.986;2023-08-24T00:32:03;11.20;;;8.43;;
55350;SDS011;62194;49.480;10.986;2023-08-24T00:32:08;11.03;;;8.50;;
55350;SDS011;62194;49.480;10.986;2023-08-24T00:32:13;11.30;;;8.38;;